Time;durP1;ratioP1;P1;durP2;ratioP2;P2;SDS_P1;SDS_P2;PMS_P1;PMS_P2;Temp;Humidity;BMP_temperature;BMP_pressure;BME280_temperature;BME280_humidity;BME280_pressure;Samples;Min_cycle;Max_cycle;Signal;HPM_P1;HPM_P2
2023/03/15 00:01:59;;;;;;;5.90;2.20;;;1.80;1.00;;;;;;6339615;22;20184;-91
2023/03/15 00:04:26;;;;;;;9.17;2.23;;;1.80;1.00;;;;;;6340387;22;20176;-91
2023/03/15 00:06:53;;;;;;;7.50;2.20;;;1.80;1.00;;;;;;6340072;22;20250;-92
2023/03/15 00:09:21;;;;;;;10.43;2.40;;;1.80;1.00;;;;;;6340105;22;20253;-92
2023/03/15 00:11:48;;;;;;;8.80;2.67;;;1.80;1.00;;;;;;6340392;22;20175;-92
2023/03/15 00:14:16;;;;;;;10.83;2.07;;;1.70;1.00;;;;;;6340110;22;20172;-91
2023/03/15 00:16:43;;;;;;;9.47;2.30;;;1.70;1.00;;;;;;6339768;22;20188;-91
2023/03/15 00:19:11;;;;;;;8.00;2.13;;;1.60;1.00;;;;;;6339711;22;20173;-90
2023/03/15 00:21:38;;;;;;;8.70;2.17;;;1.60;1.00;;;;;;6340107;22;20229;-92
2023/03/15 00:24:06;;;;;;;11.80;2.67;;;1.60;1.00;;;;;;6340188;22;20247;-89
2023/03/15 00:26:33;;;;;;;11.23;2.47;;;1.60;1.00;;;;;;6340055;22;20169;-90
2023/03/15 00:29:00;;;;;;;8.43;2.33;;;1.50;1.00;;;;;;6340122;22;20174;-90
2023/03/15 00:31:28;;;;;;;12.47;2.27;;;1.50;1.00;;;;;;6340146;22;20168;-91
2023/03/15 00:33:55;;;;;;;8.53;2.37;;;1.50;1.00;;;;;;6340040;22;20531;-90
2023/03/15 00:36:23;;;;;;;9.03;2.37;;;1.50;1.00;;;;;;6340283;22;20551;-93
2023/03/15 00:38:52;;;;;;;9.60;2.33;;;1.50;1.00;;;;;;6340022;22;20173;-91
2023/03/15 00:41:20;;;;;;;10.17;2.10;;;1.50;1.00;;;;;;6339759;22;20170;-91
2023/03/15 00:43:47;;;;;;;12.77;2.20;;;1.40;1.00;;;;;;6340015;22;20187;-92
2023/03/15 00:46:15;;;;;;;11.60;2.40;;;1.40;1.00;;;;;;6339864;22;20630;-92
2023/03/15 00:48:43;;;;;;;9.93;2.30;;;1.40;1.00;;;;;;6340233;22;20240;-91
2023/03/15 00:51:13;;;;;;;14.93;2.70;;;1.40;1.00;;;;;;6339707;22;20189;-91
2023/03/15 00:53:42;;;;;;;7.90;2.03;;;1.40;1.00;;;;;;6339705;22;20164;-91
2023/03/15 00:56:10;;;;;;;13.87;2.77;;;1.40;9.10;;;;;;6339876;22;20177;-91
2023/03/15 00:58:38;;;;;;;9.80;2.60;;;1.40;1.00;;;;;;6341972;22;20225;-92
2023/03/15 01:01:08;;;;;;;8.57;2.23;;;1.40;1.00;;;;;;6341569;22;20164;-92
2023/03/15 01:03:35;;;;;;;11.67;2.80;;;1.40;1.00;;;;;;6341381;22;20241;-91
2023/03/15 01:06:07;;;;;;;8.97;2.30;;;1.30;1.00;;;;;;6341403;22;20172;-91
2023/03/15 01:08:34;;;;;;;13.33;2.17;;;1.30;1.00;;;;;;6341457;22;20205;-93
2023/03/15 01:11:05;;;;;;;11.73;2.30;;;1.40;1.00;;;;;;6341328;22;20216;-91
2023/03/15 01:13:32;;;;;;;9.83;2.30;;;1.30;1.00;;;;;;6341561;22;20480;-91
2023/03/15 01:15:59;;;;;;;16.43;2.23;;;1.30;1.00;;;;;;6341352;22;20182;-91
2023/03/15 01:18:26;;;;;;;8.13;1.70;;;1.30;1.00;;;;;;6341355;22;20170;-91
2023/03/15 01:20:53;;;;;;;13.90;2.20;;;1.30;1.00;;;;;;6341283;22;20695;-92
2023/03/15 01:23:22;;;;;;;9.90;2.30;;;1.30;1.00;;;;;;6341235;22;20182;-91
2023/03/15 01:25:49;;;;;;;9.70;2.23;;;1.30;1.00;;;;;;6340985;22;20621;-91
2023/03/15 01:28:16;;;;;;;7.03;2.10;;;1.20;1.00;;;;;;6341452;22;20171;-91
2023/03/15 01:30:49;;;;;;;8.93;2.00;;;1.20;1.00;;;;;;6341384;22;20163;-91
2023/03/15 01:33:16;;;;;;;13.50;2.37;;;1.20;1.00;;;;;;6341249;22;20168;-91
2023/03/15 01:35:43;;;;;;;12.30;2.00;;;1.20;1.00;;;;;;6341369;22;20227;-90
2023/03/15 01:38:10;;;;;;;12.47;2.23;;;1.10;1.00;;;;;;6341269;22;20221;-91
2023/03/15 01:40:42;;;;;;;12.23;2.00;;;1.10;1.00;;;;;;6341167;22;20499;-91
2023/03/15 01:43:16;;;;;;;9.13;2.10;;;1.10;1.00;;;;;;6341082;22;20247;-91
2023/03/15 01:45:59;;;;;;;8.40;1.77;;;1.10;1.00;;;;;;6341470;22;20224;-91
2023/03/15 01:48:33;;;;;;;11.23;2.23;;;1.00;1.00;;;;;;6341453;22;20159;-91
2023/03/15 01:51:02;;;;;;;7.53;2.30;;;1.00;1.00;;;;;;6341314;22;20156;-91
2023/03/15 01:53:32;;;;;;;12.80;2.13;;;1.00;1.00;;;;;;6340987;22;20171;-91
2023/03/15 01:56:01;;;;;;;7.10;1.93;;;1.00;1.00;;;;;;6340897;22;20156;-91
2023/03/15 01:58:29;;;;;;;12.03;2.00;;;1.00;1.00;;;;;;6341097;22;20171;-91
2023/03/15 02:00:56;;;;;;;8.13;1.90;;;1.00;1.00;;;;;;6341160;22;20175;-91
2023/03/15 02:03:27;;;;;;;9.13;2.00;;;1.00;1.00;;;;;;6340825;22;20248;-92
2023/03/15 02:06:00;;;;;;;12.83;1.87;;;1.00;1.00;;;;;;6340829;22;20594;-91
2023/03/15 02:08:31;;;;;;;7.13;1.60;;;1.00;1.00;;;;;;6339937;22;20488;-90
2023/03/15 02:11:02;;;;;;;14.07;1.93;;;0.90;1.00;;;;;;6341191;22;20156;-91
2023/03/15 02:13:30;;;;;;;6.33;1.90;;;1.00;1.00;;;;;;6340782;22;20199;-91
2023/03/15 02:15:58;;;;;;;12.90;2.53;;;1.00;1.00;;;;;;6340491;22;20569;-91
2023/03/15 02:18:25;;;;;;;10.67;2.00;;;0.90;1.00;;;;;;6340960;22;20217;-91
2023/03/15 02:21:02;;;;;;;6.93;1.73;;;0.90;1.00;;;;;;6341022;22;20232;-91
2023/03/15 02:23:30;;;;;;;7.87;1.93;;;0.90;1.00;;;;;;6340529;22;20224;-91
2023/03/15 02:26:06;;;;;;;13.10;1.90;;;0.90;1.00;;;;;;6340566;22;20168;-90
2023/03/15 02:28:35;;;;;;;5.40;1.80;;;0.90;1.00;;;;;;6341179;22;20196;-91
2023/03/15 02:31:03;;;;;;;13.00;2.10;;;0.90;1.00;;;;;;6340920;22;20631;-91
2023/03/15 02:33:34;;;;;;;7.70;1.70;;;0.90;1.00;;;;;;6341062;22;20168;-92
2023/03/15 02:36:08;;;;;;;9.97;1.90;;;0.80;1.00;;;;;;6340517;22;20154;-91
2023/03/15 02:38:35;;;;;;;10.10;1.83;;;0.90;1.00;;;;;;6340569;22;20155;-92
2023/03/15 02:41:02;;;;;;;9.33;1.63;;;0.80;1.00;;;;;;6340756;22;20500;-92
2023/03/15 02:43:32;;;;;;;11.73;2.50;;;0.90;1.00;;;;;;6341081;22;20236;-92
2023/03/15 02:46:03;;;;;;;10.57;2.30;;;0.80;1.00;;;;;;6340802;22;20154;-92
2023/03/15 02:48:33;;;;;;;13.43;2.20;;;0.80;1.00;;;;;;6341098;22;20530;-90
2023/03/15 02:51:01;;;;;;;9.00;1.73;;;0.80;1.00;;;;;;6340448;22;20659;-92
2023/03/15 02:53:30;;;;;;;6.03;1.90;;;0.80;1.00;;;;;;6340291;22;20195;-91
2023/03/15 02:55:57;;;;;;;9.37;2.00;;;0.80;1.00;;;;;;6340780;22;20170;-91
2023/03/15 02:58:24;;;;;;;10.87;2.47;;;0.80;1.00;;;;;;6340600;22;20167;-91
2023/03/15 03:00:53;;;;;;;12.33;1.70;;;0.80;1.00;;;;;;6340559;22;20236;-92
2023/03/15 03:03:21;;;;;;;9.10;1.90;;;0.80;1.00;;;;;;6340367;22;20231;-90
2023/03/15 03:05:48;;;;;;;11.50;1.70;;;0.80;1.80;;;;;;6340182;22;20162;-91
2023/03/15 03:08:15;;;;;;;10.93;1.80;;;0.80;1.00;;;;;;6340524;22;20224;-90
2023/03/15 03:10:43;;;;;;;8.57;2.00;;;0.80;1.00;;;;;;6340876;22;20724;-91
2023/03/15 03:13:10;;;;;;;11.10;1.80;;;0.80;1.00;;;;;;6340696;22;20174;-92
2023/03/15 03:15:37;;;;;;;8.40;2.10;;;0.80;48.80;;;;;;6340370;22;20670;-92
2023/03/15 03:18:04;;;;;;;12.83;2.27;;;0.80;37.80;;;;;;6340811;22;20224;-92
2023/03/15 03:20:32;;;;;;;8.73;1.57;;;0.80;1.00;;;;;;6339835;22;20220;-91
2023/03/15 03:23:05;;;;;;;9.60;1.93;;;0.80;1.00;;;;;;6340538;22;20195;-93
2023/03/15 03:25:32;;;;;;;8.20;1.70;;;0.80;6.80;;;;;;6340784;22;20159;-91
2023/03/15 03:28:02;;;;;;;10.70;1.87;;;0.80;10.10;;;;;;6340406;22;20162;-91
2023/03/15 03:30:29;;;;;;;9.37;1.70;;;0.80;8.70;;;;;;6340460;22;20166;-91
2023/03/15 03:32:56;;;;;;;10.87;1.60;;;0.80;1.00;;;;;;6340244;22;20710;-92
2023/03/15 03:35:23;;;;;;;10.77;1.80;;;0.80;1.00;;;;;;6340274;22;20239;-91
2023/03/15 03:37:53;;;;;;;11.13;2.03;;;0.80;1.00;;;;;;6340143;22;20163;-92
2023/03/15 03:40:20;;;;;;;14.13;3.73;;;0.80;1.00;;;;;;6340613;22;20171;-91
2023/03/15 03:42:47;;;;;;;7.60;2.83;;;0.70;7.00;;;;;;6340153;22;20171;-91
2023/03/15 03:45:14;;;;;;;10.10;3.20;;;0.70;27.30;;;;;;6340568;22;20169;-91
2023/03/15 03:47:41;;;;;;;12.47;3.20;;;0.80;63.30;;;;;;6340302;22;20216;-91
2023/03/15 03:50:10;;;;;;;9.13;2.70;;;0.80;1.00;;;;;;6340094;22;20166;-91
2023/03/15 03:52:37;;;;;;;13.13;3.20;;;0.70;1.00;;;;;;6339979;22;20174;-91
2023/03/15 03:55:06;;;;;;;5.47;1.80;;;0.70;1.90;;;;;;6340277;22;20166;-91
2023/03/15 03:57:33;;;;;;;8.20;2.47;;;0.70;93.60;;;;;;6340444;22;20217;-91
2023/03/15 04:00:00;;;;;;;11.23;2.43;;;0.70;99.90;;;;;;6340134;22;20211;-92
2023/03/15 04:02:27;;;;;;;8.37;1.77;;;0.70;99.90;;;;;;6340503;22;20174;-91
2023/03/15 04:04:54;;;;;;;3.30;1.63;;;0.70;99.90;;;;;;6339602;22;20187;-92
2023/03/15 04:07:21;;;;;;;9.83;2.00;;;0.70;99.90;;;;;;6339778;22;20212;-91
2023/03/15 04:09:48;;;;;;;10.37;2.00;;;0.70;94.00;;;;;;6340435;22;20170;-91
2023/03/15 04:12:16;;;;;;;6.77;1.87;;;0.70;90.90;;;;;;6340779;22;20170;-91
2023/03/15 04:14:43;;;;;;;10.50;2.23;;;0.70;99.90;;;;;;6340373;22;20219;-91
2023/03/15 04:17:11;;;;;;;7.93;1.90;;;0.70;93.40;;;;;;6339407;22;20194;-92
2023/03/15 04:19:38;;;;;;;9.77;2.20;;;0.80;62.10;;;;;;6339740;22;20238;-91
2023/03/15 04:22:06;;;;;;;7.23;1.80;;;0.70;28.60;;;;;;6340226;22;20170;-90
2023/03/15 04:24:34;;;;;;;7.77;1.90;;;0.80;25.00;;;;;;6339977;22;20183;-91
2023/03/15 04:27:02;;;;;;;10.70;1.93;;;0.80;43.40;;;;;;6339792;22;20186;-91
2023/03/15 04:29:31;;;;;;;6.53;1.50;;;0.70;1.00;;;;;;6339715;22;20211;-90
2023/03/15 04:32:00;;;;;;;8.03;1.60;;;0.70;1.00;;;;;;6340622;22;20211;-90
2023/03/15 04:34:28;;;;;;;6.83;1.67;;;0.70;1.00;;;;;;6342010;22;20172;-90
2023/03/15 04:36:55;;;;;;;6.93;1.53;;;0.70;1.00;;;;;;6342057;22;20170;-90
2023/03/15 04:39:22;;;;;;;7.70;1.90;;;0.70;1.00;;;;;;6341771;22;20219;-91
2023/03/15 04:41:49;;;;;;;7.90;1.80;;;0.70;1.70;;;;;;6341457;22;20166;-91
2023/03/15 04:44:16;;;;;;;7.77;1.70;;;0.70;1.00;;;;;;6341961;22;20251;-92
2023/03/15 04:46:45;;;;;;;7.93;2.30;;;0.70;1.00;;;;;;6341603;22;20163;-91
2023/03/15 04:49:12;;;;;;;8.90;1.80;;;0.70;1.00;;;;;;6341803;22;20224;-91
2023/03/15 04:51:39;;;;;;;4.93;1.50;;;0.70;1.00;;;;;;6341420;22;20678;-91
2023/03/15 04:54:06;;;;;;;8.20;1.60;;;0.70;1.00;;;;;;6341650;22;20167;-92
2023/03/15 04:56:33;;;;;;;10.53;2.23;;;0.70;1.00;;;;;;6341630;22;20169;-91
2023/03/15 04:58:59;;;;;;;10.07;1.60;;;0.70;1.00;;;;;;6341795;22;20222;-91
2023/03/15 05:01:30;;;;;;;12.27;2.70;;;0.70;1.00;;;;;;6341772;22;20235;-90
2023/03/15 05:03:58;;;;;;;6.20;1.80;;;0.70;1.00;;;;;;6341536;22;20170;-91
2023/03/15 05:06:25;;;;;;;6.57;2.53;;;0.60;1.00;;;;;;6341514;22;20171;-91
2023/03/15 05:08:53;;;;;;;11.60;2.37;;;0.60;1.00;;;;;;6341603;22;20503;-92
2023/03/15 05:11:20;;;;;;;11.57;2.33;;;0.60;1.00;;;;;;6341609;22;20166;-92
2023/03/15 05:13:47;;;;;;;9.97;2.10;;;0.60;1.00;;;;;;6341765;22;20567;-92
2023/03/15 05:16:14;;;;;;;7.73;2.03;;;0.60;1.00;;;;;;6341354;22;20568;-91
2023/03/15 05:18:41;;;;;;;6.40;1.70;;;0.60;1.00;;;;;;6341802;22;20165;-92
2023/03/15 05:21:09;;;;;;;8.60;1.77;;;0.60;1.00;;;;;;6341577;22;20166;-92
2023/03/15 05:23:36;;;;;;;6.23;1.63;;;0.60;1.00;;;;;;6341688;22;20189;-93
2023/03/15 05:26:03;;;;;;;6.30;1.90;;;0.60;1.00;;;;;;6341562;22;20170;-92
2023/03/15 05:28:30;;;;;;;12.00;2.10;;;0.60;1.00;;;;;;6341125;22;20166;-92
2023/03/15 05:30:57;;;;;;;7.87;1.63;;;0.70;1.00;;;;;;6340825;22;20170;-92
2023/03/15 05:33:25;;;;;;;9.70;1.97;;;0.70;1.00;;;;;;6341490;22;20169;-93
2023/03/15 05:35:55;;;;;;;12.53;1.90;;;0.70;1.00;;;;;;6340885;22;20178;-91
2023/03/15 05:38:25;;;;;;;7.43;1.50;;;0.70;1.00;;;;;;6341471;22;20466;-92
2023/03/15 05:40:52;;;;;;;8.20;1.83;;;0.70;1.00;;;;;;6342214;22;20159;-94
2023/03/15 05:43:20;;;;;;;11.27;2.00;;;0.70;1.00;;;;;;6341936;22;20166;-92
2023/03/15 05:45:47;;;;;;;10.77;1.80;;;0.80;1.00;;;;;;6341498;22;20171;-92
2023/03/15 05:48:14;;;;;;;8.30;1.70;;;0.80;1.00;;;;;;6341418;22;20163;-91
2023/03/15 05:50:41;;;;;;;10.80;1.97;;;0.80;1.00;;;;;;6341683;22;20219;-94
2023/03/15 05:53:09;;;;;;;7.73;2.30;;;0.80;1.00;;;;;;6341643;22;20175;-91
2023/03/15 05:55:38;;;;;;;9.50;2.30;;;0.80;1.00;;;;;;6342018;22;20163;-92
2023/03/15 05:58:05;;;;;;;12.77;3.77;;;0.90;1.00;;;;;;6344509;22;20192;-95
2023/03/15 06:00:32;;;;;;;7.70;2.20;;;0.90;1.00;;;;;;6355603;22;20191;-93
2023/03/15 06:02:59;;;;;;;6.93;2.07;;;0.90;1.00;;;;;;6343102;22;20170;-94
2023/03/15 06:05:26;;;;;;;16.27;4.97;;;0.90;1.00;;;;;;6344979;22;20187;-93
2023/03/15 06:07:53;;;;;;;223.30;58.33;;;1.00;1.00;;;;;;6346700;22;20189;-94
2023/03/15 06:10:20;;;;;;;22.97;6.43;;;1.10;1.00;;;;;;6344018;22;20220;-92
2023/03/15 06:12:49;;;;;;;12.57;3.47;;;1.10;1.00;;;;;;6342521;22;20545;-92
2023/03/15 06:15:16;;;;;;;8.57;2.50;;;1.10;1.00;;;;;;6340990;22;20186;-92
2023/03/15 06:17:43;;;;;;;11.13;2.83;;;1.20;1.00;;;;;;6342017;22;20237;-92
2023/03/15 06:20:11;;;;;;;15.17;2.80;;;1.30;1.00;;;;;;6341381;22;20170;-92
2023/03/15 06:22:38;;;;;;;10.90;3.30;;;1.30;1.00;;;;;;6341236;22;20252;-91
2023/03/15 06:25:06;;;;;;;7.57;2.03;;;1.30;1.00;;;;;;6341154;22;20273;-92
2023/03/15 06:27:33;;;;;;;11.93;3.60;;;1.40;1.00;;;;;;6340859;22;20171;-93
2023/03/15 06:30:02;;;;;;;14.53;5.80;;;1.50;1.00;;;;;;6341204;22;20166;-93
2023/03/15 06:32:29;;;;;;;10.83;3.17;;;1.50;99.90;;;;;;6341411;22;20170;-92
2023/03/15 06:34:56;;;;;;;16.93;5.67;;;1.50;99.90;;;;;;6340935;22;20629;-93
2023/03/15 06:37:23;;;;;;;7.57;2.20;;;1.60;99.90;;;;;;6340978;22;20229;-94
2023/03/15 06:39:52;;;;;;;20.83;4.90;;;1.70;99.90;;;;;;6341214;22;20232;-92
2023/03/15 06:42:19;;;;;;;9.63;3.37;;;1.70;99.90;;;;;;6341441;22;20250;-93
2023/03/15 06:44:46;;;;;;;11.77;3.27;;;1.80;99.90;;;;;;6340462;22;20185;-92
2023/03/15 06:47:14;;;;;;;13.73;5.57;;;1.80;99.90;;;;;;6341308;22;20171;-92
2023/03/15 06:49:41;;;;;;;24.33;11.40;;;1.90;99.90;;;;;;6341237;22;20223;-91
2023/03/15 06:52:09;;;;;;;7.67;2.90;;;1.90;98.50;;;;;;6340854;22;20625;-92
2023/03/15 06:54:36;;;;;;;8.43;2.63;;;2.00;99.90;;;;;;6341170;22;20225;-92
2023/03/15 06:57:04;;;;;;;12.23;4.10;;;2.00;95.90;;;;;;6341171;22;20172;-92
2023/03/15 06:59:30;;;;;;;15.67;4.83;;;2.10;1.00;;;;;;6340887;22;20170;-93
2023/03/15 07:01:57;;;;;;;9.33;2.83;;;2.10;1.00;;;;;;6341283;22;20173;-92
2023/03/15 07:04:26;;;;;;;11.57;3.37;;;2.20;1.00;;;;;;6341178;22;20244;-93
2023/03/15 07:06:54;;;;;;;25.80;8.53;;;2.20;1.00;;;;;;6340980;22;20221;-92
2023/03/15 07:09:21;;;;;;;11.30;3.90;;;2.30;1.00;;;;;;6341070;22;20173;-93
2023/03/15 07:11:48;;;;;;;18.80;7.87;;;2.40;1.00;;;;;;6341109;22;20172;-92
2023/03/15 07:14:15;;;;;;;19.50;6.63;;;2.50;1.00;;;;;;6340653;22;20166;-93
2023/03/15 07:16:42;;;;;;;22.17;9.00;;;2.60;1.00;;;;;;6340840;22;20564;-92
2023/03/15 07:19:09;;;;;;;18.00;8.30;;;2.60;99.90;;;;;;6340527;22;20206;-91
2023/03/15 07:21:37;;;;;;;15.90;7.67;;;2.60;99.90;;;;;;6340718;22;20169;-92
2023/03/15 07:24:04;;;;;;;14.07;5.43;;;2.80;99.90;;;;;;6340803;22;20483;-94
2023/03/15 07:26:31;;;;;;;12.30;4.07;;;2.80;1.00;;;;;;6341504;22;20549;-92
2023/03/15 07:28:58;;;;;;;15.23;5.17;;;2.80;1.00;;;;;;6340574;22;20172;-92
2023/03/15 07:31:25;;;;;;;12.70;3.87;;;2.80;1.00;;;;;;6340855;22;20167;-92
2023/03/15 07:33:52;;;;;;;6.60;2.70;;;2.90;1.00;;;;;;6341200;22;20221;-93
2023/03/15 07:36:21;;;;;;;11.37;4.37;;;2.90;1.00;;;;;;6340714;22;20699;-93
2023/03/15 07:38:49;;;;;;;8.50;3.13;;;3.00;1.00;;;;;;6341067;22;20166;-93
2023/03/15 07:41:16;;;;;;;10.77;2.60;;;3.00;1.00;;;;;;6340489;22;20171;-92
2023/03/15 07:43:43;;;;;;;6.17;2.20;;;3.00;1.00;;;;;;6340670;22;20198;-92
2023/03/15 07:46:10;;;;;;;11.47;3.20;;;3.10;99.90;;;;;;6340441;22;20189;-92
2023/03/15 07:48:37;;;;;;;8.07;2.40;;;3.10;99.90;;;;;;6340561;22;20170;-93
2023/03/15 07:51:04;;;;;;;11.77;3.70;;;3.20;99.90;;;;;;6340317;22;20169;-93
2023/03/15 07:53:31;;;;;;;11.37;3.30;;;3.20;99.90;;;;;;6340594;22;20170;-92
2023/03/15 07:56:00;;;;;;;54.30;27.80;;;3.30;99.90;;;;;;6340406;22;20158;-92
2023/03/15 07:58:27;;;;;;;33.30;11.13;;;3.40;1.00;;;;;;6340162;22;20230;-92
2023/03/15 08:00:55;;;;;;;18.73;6.00;;;3.40;1.00;;;;;;6340647;22;20177;-92
2023/03/15 08:03:23;;;;;;;28.10;9.43;;;3.50;1.00;;;;;;6340533;22;20229;-94
2023/03/15 08:05:50;;;;;;;13.93;4.57;;;3.60;1.00;;;;;;6340237;22;20194;-94
2023/03/15 08:08:17;;;;;;;129.27;39.00;;;3.70;1.00;;;;;;6340183;22;20191;-92
2023/03/15 08:10:44;;;;;;;13.50;4.70;;;3.80;1.00;;;;;;6340352;22;20615;-94
2023/03/15 08:13:13;;;;;;;44.93;15.33;;;3.80;1.00;;;;;;6340292;22;20170;-92
2023/03/15 08:15:40;;;;;;;24.17;7.03;;;3.90;99.90;;;;;;6340429;22;20246;-93
2023/03/15 08:18:07;;;;;;;24.97;8.40;;;4.00;99.90;;;;;;6340770;22;20607;-92
2023/03/15 08:20:34;;;;;;;16.27;4.47;;;4.10;99.90;;;;;;6340523;22;20170;-92
2023/03/15 08:23:02;;;;;;;19.30;7.33;;;4.30;99.90;;;;;;6340471;22;20219;-93
2023/03/15 08:25:29;;;;;;;58.83;17.80;;;4.40;96.00;;;;;;6340435;22;20186;-93
2023/03/15 08:27:56;;;;;;;42.80;16.13;;;4.40;7.00;;;;;;6340259;22;20170;-93
2023/03/15 08:30:25;;;;;;;36.37;12.00;;;4.50;99.90;;;;;;6340724;22;20170;-93
2023/03/15 08:32:52;;;;;;;29.57;11.00;;;4.50;1.00;;;;;;6340057;22;20216;-92
2023/03/15 08:35:21;;;;;;;15.13;4.90;;;4.40;1.00;;;;;;6340955;22;20245;-92
2023/03/15 08:37:49;;;;;;;36.90;13.93;;;4.40;99.90;;;;;;6340078;22;20170;-92
2023/03/15 08:40:23;;;;;;;9.43;3.23;;;4.50;1.00;;;;;;6340559;22;20170;-92
2023/03/15 08:42:51;;;;;;;11.47;3.20;;;4.60;54.50;;;;;;6340230;22;20233;-92
2023/03/15 08:45:18;;;;;;;11.77;3.63;;;4.70;1.00;;;;;;6340110;22;20189;-91
2023/03/15 08:47:46;;;;;;;13.60;4.03;;;4.80;1.00;;;;;;6340279;22;20235;-92
2023/03/15 08:50:16;;;;;;;5.53;3.00;;;4.80;1.00;;;;;;6340091;22;20158;-93
2023/03/15 08:52:43;;;;;;;7.97;3.43;;;4.90;1.00;;;;;;6340040;22;20201;-93
2023/03/15 08:55:13;;;;;;;7.37;2.87;;;5.20;99.90;;;;;;6340201;22;20254;-93
2023/03/15 08:57:40;;;;;;;8.77;3.67;;;5.60;1.00;;;;;;6340568;22;20170;-94
2023/03/15 09:00:08;;;;;;;9.77;3.23;;;5.90;99.90;;;;;;6339848;22;20227;-92
2023/03/15 09:02:36;;;;;;;6.03;3.00;;;6.10;99.90;;;;;;6340398;22;20167;-92
2023/03/15 09:05:06;;;;;;;8.13;2.87;;;6.40;1.00;;;;;;6340115;22;20270;-92
2023/03/15 09:07:33;;;;;;;9.30;3.67;;;6.50;1.00;;;;;;6340101;22;20201;-92
2023/03/15 09:10:00;;;;;;;9.60;3.07;;;6.70;1.00;;;;;;6340063;22;20629;-91
2023/03/15 09:12:27;;;;;;;9.37;2.87;;;6.90;1.00;;;;;;6340096;22;20614;-92
2023/03/15 09:14:54;;;;;;;28.40;8.73;;;7.10;1.00;;;;;;6340143;22;20170;-93
2023/03/15 09:17:21;;;;;;;15.37;5.10;;;7.20;99.90;;;;;;6340215;22;20150;-93
2023/03/15 09:19:48;;;;;;;10.80;3.40;;;7.10;99.90;;;;;;6341888;22;20535;-93
2023/03/15 09:22:16;;;;;;;8.60;3.30;;;6.90;99.90;;;;;;6341494;22;20165;-92
2023/03/15 09:24:43;;;;;;;10.53;4.20;;;6.60;99.90;;;;;;6341106;22;20169;-91
2023/03/15 09:27:11;;;;;;;5.40;2.40;;;6.30;99.90;;;;;;6341601;22;20486;-91
2023/03/15 09:29:38;;;;;;;44.80;19.47;;;6.20;1.00;;;;;;6341264;22;20196;-93
2023/03/15 09:32:05;;;;;;;23.43;9.70;;;6.00;1.00;;;;;;6341520;22;20172;-90
2023/03/15 09:34:32;;;;;;;28.27;13.67;;;6.00;1.00;;;;;;6341263;22;20209;-91
2023/03/15 09:36:59;;;;;;;32.37;15.93;;;6.10;1.00;;;;;;6341342;22;20171;-91
2023/03/15 09:39:27;;;;;;;12.00;6.40;;;6.00;1.00;;;;;;6341011;22;20168;-92
2023/03/15 09:41:57;;;;;;;18.20;6.00;;;5.90;1.00;;;;;;6341197;22;20619;-91
2023/03/15 09:44:39;;;;;;;28.10;13.17;;;6.20;99.90;;;;;;6341538;22;20198;-92
2023/03/15 09:47:19;;;;;;;18.50;8.80;;;6.70;1.00;;;;;;6341606;22;20186;-92
2023/03/15 09:49:51;;;;;;;11.83;4.03;;;7.10;1.00;;;;;;6341412;22;20157;-92
2023/03/15 09:52:37;;;;;;;13.70;2.63;;;7.10;99.90;;;;;;6341395;22;20219;-92
2023/03/15 09:55:13;;;;;;;27.30;16.33;;;7.30;1.00;;;;;;6341022;22;20645;-93
2023/03/15 09:57:45;;;;;;;11.37;6.30;;;7.40;99.90;;;;;;6341620;22;20614;-91
2023/03/15 10:00:16;;;;;;;11.60;6.73;;;7.40;99.90;;;;;;6341373;22;20222;-92
2023/03/15 10:02:49;;;;;;;10.03;2.80;;;7.40;1.00;;;;;;6341832;22;20173;-93
2023/03/15 10:05:22;;;;;;;7.40;2.23;;;7.40;99.90;;;;;;6341116;22;20639;-92
2023/03/15 10:07:49;;;;;;;8.63;2.90;;;7.50;99.90;;;;;;6341189;22;20154;-93
2023/03/15 10:10:21;;;;;;;26.40;14.10;;;7.60;99.90;;;;;;6341192;22;20216;-92
2023/03/15 10:12:56;;;;;;;19.30;8.80;;;7.60;1.00;;;;;;6341589;22;20150;-93
2023/03/15 10:15:35;;;;;;;12.27;5.73;;;7.60;1.00;;;;;;6341009;22;20195;-92
2023/03/15 10:18:21;;;;;;;6.50;2.50;;;7.70;1.00;;;;;;6341524;22;20157;-93
2023/03/15 10:20:56;;;;;;;15.67;6.60;;;7.80;1.00;;;;;;6340978;22;20162;-94
2023/03/15 10:23:32;;;;;;;12.50;5.13;;;7.80;1.00;;;;;;6341327;22;20212;-94
2023/03/15 10:26:03;;;;;;;27.90;13.77;;;7.90;1.00;;;;;;6341136;22;20836;-93
2023/03/15 10:28:31;;;;;;;11.27;6.40;;;8.20;1.00;;;;;;6341015;22;20154;-92
2023/03/15 10:31:01;;;;;;;7.07;3.60;;;8.50;1.00;;;;;;6340586;22;20237;-94
2023/03/15 10:33:31;;;;;;;8.77;4.47;;;8.70;99.90;;;;;;6341176;22;20212;-93
2023/03/15 10:36:00;;;;;;;6.37;2.50;;;8.90;99.90;;;;;;6340867;22;20163;-93
2023/03/15 10:38:28;;;;;;;9.47;4.83;;;8.90;99.90;;;;;;6340903;22;20166;-92
2023/03/15 10:40:56;;;;;;;12.37;6.23;;;8.80;99.90;;;;;;6340840;22;20601;-93
2023/03/15 10:43:28;;;;;;;9.37;5.37;;;8.50;99.90;;;;;;6341140;22;20171;-94
2023/03/15 10:46:00;;;;;;;14.17;2.83;;;8.30;99.90;;;;;;6341449;22;20210;-94
2023/03/15 10:48:29;;;;;;;5.50;2.43;;;8.30;99.90;;;;;;6341321;22;20171;-93
2023/03/15 10:50:56;;;;;;;11.87;2.80;;;8.30;99.90;;;;;;6340625;22;20169;-92
2023/03/15 10:53:24;;;;;;;9.13;3.57;;;8.50;99.90;;;;;;6340778;22;20606;-93
2023/03/15 10:56:00;;;;;;;9.97;2.93;;;8.60;99.90;;;;;;6340911;22;20200;-93
2023/03/15 10:58:38;;;;;;;10.70;5.40;;;8.70;99.90;;;;;;6341544;22;20216;-93
2023/03/15 11:01:08;;;;;;;13.47;4.17;;;8.60;99.90;;;;;;6340707;22;20584;-94
2023/03/15 11:03:36;;;;;;;6.20;2.40;;;8.40;99.90;;;;;;6340815;22;20632;-93
2023/03/15 11:06:17;;;;;;;5.87;3.10;;;8.20;99.90;;;;;;6340642;22;20182;-94
2023/03/15 11:08:44;;;;;;;13.30;3.77;;;8.00;99.90;;;;;;6340792;22;20205;-92
2023/03/15 11:11:11;;;;;;;11.73;3.13;;;7.80;99.90;;;;;;6340847;22;20226;-94
2023/03/15 11:13:41;;;;;;;4.43;3.33;;;7.70;99.90;;;;;;6340753;22;20170;-93
2023/03/15 11:16:20;;;;;;;9.97;3.67;;;7.60;99.90;;;;;;6340696;22;20191;-95
2023/03/15 11:18:52;;;;;;;6.03;3.23;;;7.60;99.90;;;;;;6340412;22;20596;-93
2023/03/15 11:21:22;;;;;;;4.97;2.77;;;7.80;99.90;;;;;;6340793;22;20233;-93
2023/03/15 11:23:51;;;;;;;10.70;2.00;;;8.00;94.70;;;;;;6340788;22;20162;-94
2023/03/15 11:26:21;;;;;;;8.73;2.20;;;8.00;90.00;;;;;;6341539;22;20520;-94
2023/03/15 11:28:53;;;;;;;10.00;2.13;;;7.90;90.00;;;;;;6340480;22;20592;-93
2023/03/15 11:31:21;;;;;;;8.30;2.40;;;7.90;96.90;;;;;;6340996;22;20223;-93
2023/03/15 11:33:53;;;;;;;6.57;2.10;;;8.00;97.60;;;;;;6340442;22;20167;-95
2023/03/15 11:36:25;;;;;;;8.77;3.13;;;8.30;97.60;;;;;;6340708;22;20548;-94
2023/03/15 11:38:53;;;;;;;4.87;2.10;;;8.50;91.10;;;;;;6340862;22;20155;-94
2023/03/15 11:41:29;;;;;;;8.07;2.50;;;8.50;97.60;;;;;;6340325;22;20166;-94
2023/03/15 11:44:06;;;;;;;7.20;2.43;;;8.40;76.80;;;;;;6341031;22;20158;-94
2023/03/15 11:46:44;;;;;;;8.10;1.90;;;8.20;83.80;;;;;;6340822;22;20221;-93
2023/03/15 11:49:17;;;;;;;8.03;2.60;;;8.10;86.20;;;;;;6340884;22;20588;-93
2023/03/15 11:51:44;;;;;;;3.87;2.00;;;7.90;81.60;;;;;;6340897;22;20155;-94
2023/03/15 11:54:14;;;;;;;10.33;1.90;;;7.70;70.20;;;;;;6340550;22;20172;-94
2023/03/15 11:56:53;;;;;;;11.27;3.73;;;7.30;73.30;;;;;;6340558;22;20162;-94
2023/03/15 11:59:25;;;;;;;8.43;2.43;;;7.10;84.40;;;;;;6340378;22;20226;-94
2023/03/15 12:01:57;;;;;;;6.07;2.30;;;6.90;91.60;;;;;;6340682;22;20162;-93
2023/03/15 12:04:45;;;;;;;7.13;2.10;;;6.80;93.40;;;;;;6340441;22;20470;-93
2023/03/15 12:07:37;;;;;;;9.03;3.90;;;6.70;93.20;;;;;;6340777;22;20235;-94
2023/03/15 12:10:31;;;;;;;8.63;3.53;;;6.60;92.30;;;;;;6340551;22;20154;-93
2023/03/15 12:12:59;;;;;;;8.83;3.23;;;6.70;90.00;;;;;;6340167;22;20182;-95
2023/03/15 12:15:45;;;;;;;6.17;2.27;;;6.80;89.00;;;;;;6340086;22;20193;-93
2023/03/15 12:18:22;;;;;;;7.43;2.73;;;6.90;85.10;;;;;;6340740;22;20874;-94
2023/03/15 12:21:10;;;;;;;8.60;2.80;;;7.00;70.80;;;;;;6340734;22;20597;-93
2023/03/15 12:23:44;;;;;;;3.97;1.40;;;7.10;63.20;;;;;;6340721;22;20159;-94
2023/03/15 12:26:26;;;;;;;3.63;1.70;;;7.30;53.60;;;;;;6340655;22;20189;-94
2023/03/15 12:29:05;;;;;;;6.37;1.90;;;7.40;47.80;;;;;;6340923;22;20154;-94
2023/03/15 12:31:55;;;;;;;5.97;2.20;;;7.40;40.90;;;;;;6340095;22;20169;-94
2023/03/15 12:34:31;;;;;;;2.40;1.50;;;7.50;41.50;;;;;;6340616;22;20155;-95
2023/03/15 12:37:02;;;;;;;6.77;2.30;;;7.60;34.80;;;;;;6340548;22;20189;-93
2023/03/15 12:39:51;;;;;;;6.43;2.13;;;7.70;29.40;;;;;;6340567;22;20154;-94
2023/03/15 12:43:08;;;;;;;5.97;2.37;;;7.70;27.90;;;;;;6331992;22;20170;-93
2023/03/15 12:45:44;;;;;;;7.40;1.53;;;7.80;25.40;;;;;;6215487;23;20157;-93
2023/03/15 12:48:26;;;;;;;4.50;1.40;;;7.80;21.80;;;;;;6215084;23;20179;-93
2023/03/15 12:50:59;;;;;;;6.43;1.50;;;7.70;18.00;;;;;;6215327;23;20211;-93
2023/03/15 12:53:37;;;;;;;8.20;2.50;;;7.50;14.70;;;;;;6216553;23;20184;-94
2023/03/15 12:56:44;;;;;;;8.50;1.70;;;7.30;13.40;;;;;;6217161;23;20149;-95
2023/03/15 12:59:30;;;;;;;5.97;1.40;;;7.00;12.40;;;;;;6216669;23;20206;-93
2023/03/15 13:01:58;;;;;;;7.87;1.53;;;6.80;15.10;;;;;;6217043;23;20159;-93
2023/03/15 13:04:29;;;;;;;5.40;1.67;;;6.70;14.70;;;;;;6216898;23;20226;-92
2023/03/15 13:07:07;;;;;;;4.80;1.33;;;6.70;15.30;;;;;;6216831;23;20188;-93
2023/03/15 13:10:13;;;;;;;18.80;3.23;;;6.80;17.10;;;;;;6217277;23;20591;-93
2023/03/15 13:12:45;;;;;;;3.03;1.63;;;7.00;16.70;;;;;;5984177;24;20181;-93